PWSweather.com
Personal Weather Stations
Station Observations
KTXROWLE6
Ravens Nest, Rowlett, TX 75089

Ravens NestRowlett, TX 75089

Lat: 32.93105, Lon: -96.57368

Elevation: 556

Station Type: Davis Vantage Pro2 6152

http://rowlett.ws

High Low Average
Temperature 96.9°F36.1°C 70.5°F21.4°C 84.8°F29.3°C
Dew Point 78.2°F25.7°C 69.0°F20.6°C 73.9°F23.3°C
Winds 4.7 mph 7.6 kmh Calm Calm 2.0 mph SSE3.2 kmh SSE
Wind Gusts 18.0 mph29.0 kmh -- 6.0 mph9.7 kmh
Humidity 96% 52% 72%
Pressure 29.80 in1009.1 mb 29.70 in1005.8 mb -
Precipitation 0.00 in0.0 mm - -
Hour Temp Dew Point Humidity Winds Wind Gusts Pressure Precip Precip Rate Daily Precip Total
12:00 AM 70.8°F21.6°C 65.7°F18.7°C 84% 1.2 mph SE1.9 kmh SE 3.0 mph4.8 kmh 29.71 in1006.1 mb 0.19 in4.8 mm 0.00 in0.0 mm 0.19 in4.8 mm
12:05 AM 70.7°F21.5°C 65.6°F18.7°C 84% Calm Calm 3.0 mph4.8 kmh 29.71 in1006.1 mb 0.19 in4.8 mm 0.00 in0.0 mm 0.19 in4.8 mm
12:10 AM 70.7°F21.5°C 66.0°F18.9°C 85% Calm Calm -- 29.71 in1006.1 mb 0.19 in4.8 mm 0.00 in0.0 mm 0.19 in4.8 mm
12:15 AM 70.8°F21.6°C 66.4°F19.1°C 86% 0.1 mph SE0.2 kmh SE 1.0 mph1.6 kmh 29.71 in1006.1 mb 0.19 in4.8 mm 0.00 in0.0 mm 0.19 in4.8 mm
12:20 AM 71.0°F21.7°C 66.6°F19.2°C 86% 0.2 mph SE0.3 kmh SE 1.0 mph1.6 kmh 29.71 in1006.1 mb 0.19 in4.8 mm 0.00 in0.0 mm 0.19 in4.8 mm
12:25 AM 71.2°F21.8°C 66.8°F19.3°C 86% 0.1 mph SE0.2 kmh SE 1.0 mph1.6 kmh 29.72 in1006.4 mb 0.19 in4.8 mm 0.00 in0.0 mm 0.19 in4.8 mm
12:30 AM 71.3°F21.8°C 67.2°F19.6°C 87% 0.1 mph SE0.2 kmh SE 2.0 mph3.2 kmh 29.73 in1006.8 mb 0.13 in3.3 mm 0.00 in0.0 mm 0.19 in4.8 mm
12:35 AM 71.4°F21.9°C 67.3°F19.6°C 87% Calm Calm 2.0 mph3.2 kmh 29.72 in1006.4 mb 0.01 in0.3 mm 0.00 in0.0 mm 0.19 in4.8 mm
12:40 AM 71.6°F22.0°C 68.2°F20.1°C 89% 0.1 mph SE0.2 kmh SE 1.0 mph1.6 kmh 29.72 in1006.4 mb 0.01 in0.3 mm 0.00 in0.0 mm 0.19 in4.8 mm
12:45 AM 71.7°F22.1°C 68.6°F20.3°C 90% 0.5 mph SE0.8 kmh SE 2.0 mph3.2 kmh 29.73 in1006.8 mb 0.00 in0.0 mm 0.00 in0.0 mm 0.19 in4.8 mm
12:50 AM 71.7°F22.1°C 68.6°F20.3°C 90% 0.1 mph SE0.2 kmh SE 2.0 mph3.2 kmh 29.73 in1006.8 mb 0.00 in0.0 mm 0.00 in0.0 mm 0.19 in4.8 mm
12:55 AM 71.8°F22.1°C 68.7°F20.4°C 90% Calm Calm 1.0 mph1.6 kmh 29.73 in1006.8 mb 0.00 in0.0 mm 0.00 in0.0 mm 0.19 in4.8 mm
01:00 AM 71.8°F22.1°C 69.0°F20.6°C 91% Calm Calm -- 29.73 in1006.8 mb 0.00 in0.0 mm 0.00 in0.0 mm 0.19 in4.8 mm
01:05 AM 72.0°F22.2°C 69.5°F20.8°C 92% Calm Calm -- 29.74 in1007.1 mb 0.00 in0.0 mm 0.00 in0.0 mm 0.19 in4.8 mm
01:10 AM 72.0°F22.2°C 69.9°F21.1°C 93% Calm Calm -- 29.74 in1007.1 mb 0.00 in0.0 mm 0.00 in0.0 mm 0.19 in4.8 mm
01:15 AM 72.1°F22.3°C 70.0°F21.1°C 93% Calm Calm -- 29.74 in1007.1 mb 0.00 in0.0 mm 0.00 in0.0 mm 0.19 in4.8 mm
01:20 AM 72.3°F22.4°C 70.5°F21.4°C 94% Calm Calm -- 29.75 in1007.5 mb 0.00 in0.0 mm 0.00 in0.0 mm 0.19 in4.8 mm
01:25 AM 72.5°F22.5°C 70.7°F21.5°C 94% Calm Calm -- 29.75 in1007.5 mb 0.00 in0.0 mm 0.00 in0.0 mm 0.19 in4.8 mm
01:30 AM 72.5°F22.5°C 70.7°F21.5°C 94% Calm Calm -- 29.75 in1007.5 mb 0.00 in0.0 mm 0.00 in0.0 mm 0.19 in4.8 mm
01:35 AM 72.6°F22.6°C 71.1°F21.7°C 95% Calm Calm -- 29.75 in1007.5 mb 0.00 in0.0 mm 0.00 in0.0 mm 0.19 in4.8 mm
01:40 AM 72.8°F22.7°C 71.3°F21.8°C 95% Calm Calm -- 29.75 in1007.5 mb 0.00 in0.0 mm 0.00 in0.0 mm 0.19 in4.8 mm
01:45 AM 73.1°F22.8°C 71.6°F22.0°C 95% 0.4 mph SSW0.6 kmh SSW 2.0 mph3.2 kmh 29.75 in1007.5 mb 0.00 in0.0 mm 0.00 in0.0 mm 0.19 in4.8 mm
01:50 AM 73.4°F23.0°C 72.2°F22.3°C 96% 0.4 mph SW0.6 kmh SW 2.0 mph3.2 kmh 29.75 in1007.5 mb 0.00 in0.0 mm 0.00 in0.0 mm 0.19 in4.8 mm
01:55 AM 73.7°F23.2°C 72.2°F22.3°C 95% 0.2 mph SW0.3 kmh SW 2.0 mph3.2 kmh 29.74 in1007.1 mb 0.00 in0.0 mm 0.00 in0.0 mm 0.19 in4.8 mm
02:00 AM 73.7°F23.2°C 72.2°F22.3°C 95% 0.5 mph SSW0.8 kmh SSW 2.0 mph3.2 kmh 29.74 in1007.1 mb 0.00 in0.0 mm 0.00 in0.0 mm 0.19 in4.8 mm
02:05 AM 73.8°F23.2°C 72.3°F22.4°C 95% 0.5 mph SW0.8 kmh SW 2.0 mph3.2 kmh 29.74 in1007.1 mb 0.00 in0.0 mm 0.00 in0.0 mm 0.19 in4.8 mm
02:10 AM 73.7°F23.2°C 71.9°F22.2°C 94% Calm Calm 2.0 mph3.2 kmh 29.75 in1007.5 mb 0.00 in0.0 mm 0.00 in0.0 mm 0.19 in4.8 mm
02:15 AM 73.6°F23.1°C 71.8°F22.1°C 94% 0.5 mph SW0.8 kmh SW 2.0 mph3.2 kmh 29.75 in1007.5 mb 0.00 in0.0 mm 0.00 in0.0 mm 0.19 in4.8 mm
02:20 AM 73.5°F23.1°C 71.7°F22.1°C 94% Calm Calm 2.0 mph3.2 kmh 29.74 in1007.1 mb 0.00 in0.0 mm 0.00 in0.0 mm 0.19 in4.8 mm
02:25 AM 73.4°F23.0°C 71.6°F22.0°C 94% Calm Calm -- 29.74 in1007.1 mb 0.00 in0.0 mm 0.00 in0.0 mm 0.19 in4.8 mm
02:30 AM 73.3°F22.9°C 71.5°F21.9°C 94% Calm Calm 1.0 mph1.6 kmh 29.75 in1007.5 mb 0.00 in0.0 mm 0.00 in0.0 mm 0.19 in4.8 mm
02:35 AM 73.2°F22.9°C 71.4°F21.9°C 94% Calm Calm 1.0 mph1.6 kmh 29.76 in1007.8 mb 0.00 in0.0 mm 0.00 in0.0 mm 0.19 in4.8 mm
02:40 AM 73.3°F22.9°C 71.5°F21.9°C 94% Calm Calm 1.0 mph1.6 kmh 29.76 in1007.8 mb 0.00 in0.0 mm 0.00 in0.0 mm 0.19 in4.8 mm
02:45 AM 73.4°F23.0°C 71.6°F22.0°C 94% 0.1 mph SSE0.2 kmh SSE 1.0 mph1.6 kmh 29.75 in1007.5 mb 0.00 in0.0 mm 0.00 in0.0 mm 0.19 in4.8 mm
02:50 AM 73.5°F23.1°C 71.7°F22.1°C 94% 0.1 mph S0.2 kmh S 1.0 mph1.6 kmh 29.74 in1007.1 mb 0.00 in0.0 mm 0.00 in0.0 mm 0.19 in4.8 mm
02:55 AM 73.5°F23.1°C 71.7°F22.1°C 94% Calm Calm 1.0 mph1.6 kmh 29.75 in1007.5 mb 0.00 in0.0 mm 0.00 in0.0 mm 0.19 in4.8 mm
03:00 AM 73.5°F23.1°C 71.7°F22.1°C 94% Calm Calm -- 29.75 in1007.5 mb 0.00 in0.0 mm 0.00 in0.0 mm 0.19 in4.8 mm
03:05 AM 73.5°F23.1°C 71.7°F22.1°C 94% Calm Calm -- 29.75 in1007.5 mb 0.00 in0.0 mm 0.00 in0.0 mm 0.19 in4.8 mm
03:10 AM 73.4°F23.0°C 71.6°F22.0°C 94% Calm Calm -- 29.75 in1007.5 mb 0.00 in0.0 mm 0.00 in0.0 mm 0.19 in4.8 mm
03:15 AM 73.3°F22.9°C 71.5°F21.9°C 94% Calm Calm -- 29.75 in1007.5 mb 0.00 in0.0 mm 0.00 in0.0 mm 0.19 in4.8 mm
03:20 AM 73.3°F22.9°C 71.8°F22.1°C 95% Calm Calm -- 29.74 in1007.1 mb 0.00 in0.0 mm 0.00 in0.0 mm 0.19 in4.8 mm
03:25 AM 73.2°F22.9°C 71.7°F22.1°C 95% Calm Calm -- 29.75 in1007.5 mb 0.00 in0.0 mm 0.00 in0.0 mm 0.19 in4.8 mm
03:30 AM 73.3°F22.9°C 71.8°F22.1°C 95% Calm Calm -- 29.75 in1007.5 mb 0.00 in0.0 mm 0.00 in0.0 mm 0.19 in4.8 mm
03:35 AM 73.3°F22.9°C 71.8°F22.1°C 95% Calm Calm -- 29.76 in1007.8 mb 0.00 in0.0 mm 0.00 in0.0 mm 0.19 in4.8 mm
03:40 AM 73.2°F22.9°C 71.7°F22.1°C 95% Calm Calm -- 29.75 in1007.5 mb 0.00 in0.0 mm 0.00 in0.0 mm 0.19 in4.8 mm
03:45 AM 73.2°F22.9°C 71.7°F22.1°C 95% Calm Calm -- 29.75 in1007.5 mb 0.00 in0.0 mm 0.00 in0.0 mm 0.19 in4.8 mm
03:50 AM 73.2°F22.9°C 71.7°F22.1°C 95% Calm Calm -- 29.76 in1007.8 mb 0.00 in0.0 mm 0.00 in0.0 mm 0.19 in4.8 mm
03:55 AM 73.3°F22.9°C 71.8°F22.1°C 95% 0.2 mph SW0.3 kmh SW 1.0 mph1.6 kmh 29.76 in1007.8 mb 0.00 in0.0 mm 0.00 in0.0 mm 0.19 in4.8 mm
04:00 AM 73.5°F23.1°C 72.0°F22.2°C 95% 0.4 mph SSW0.6 kmh SSW 2.0 mph3.2 kmh 29.76 in1007.8 mb 0.00 in0.0 mm 0.00 in0.0 mm 0.19 in4.8 mm
04:05 AM 73.6°F23.1°C 72.1°F22.3°C 95% 0.1 mph SE0.2 kmh SE 2.0 mph3.2 kmh 29.76 in1007.8 mb 0.00 in0.0 mm 0.00 in0.0 mm 0.19 in4.8 mm
04:10 AM 73.5°F23.1°C 71.7°F22.1°C 94% Calm Calm 2.0 mph3.2 kmh 29.77 in1008.1 mb 0.00 in0.0 mm 0.00 in0.0 mm 0.19 in4.8 mm
04:15 AM 73.5°F23.1°C 71.7°F22.1°C 94% Calm Calm -- 29.77 in1008.1 mb 0.00 in0.0 mm 0.00 in0.0 mm 0.19 in4.8 mm
04:20 AM 73.4°F23.0°C 71.6°F22.0°C 94% Calm Calm 1.0 mph1.6 kmh 29.77 in1008.1 mb 0.00 in0.0 mm 0.00 in0.0 mm 0.19 in4.8 mm
04:25 AM 73.4°F23.0°C 71.6°F22.0°C 94% Calm Calm 1.0 mph1.6 kmh 29.77 in1008.1 mb 0.00 in0.0 mm 0.00 in0.0 mm 0.19 in4.8 mm
04:30 AM 73.2°F22.9°C 71.4°F21.9°C 94% Calm Calm -- 29.77 in1008.1 mb 0.00 in0.0 mm 0.00 in0.0 mm 0.19 in4.8 mm
04:35 AM 73.0°F22.8°C 71.2°F21.8°C 94% Calm Calm -- 29.77 in1008.1 mb 0.00 in0.0 mm 0.00 in0.0 mm 0.19 in4.8 mm
04:40 AM 72.8°F22.7°C 71.3°F21.8°C 95% Calm Calm -- 29.77 in1008.1 mb 0.00 in0.0 mm 0.00 in0.0 mm 0.19 in4.8 mm
04:45 AM 72.7°F22.6°C 71.2°F21.8°C 95% Calm Calm -- 29.77 in1008.1 mb 0.00 in0.0 mm 0.00 in0.0 mm 0.19 in4.8 mm
04:50 AM 72.5°F22.5°C 71.0°F21.7°C 95% Calm Calm -- 29.77 in1008.1 mb 0.00 in0.0 mm 0.00 in0.0 mm 0.19 in4.8 mm
04:55 AM 72.4°F22.4°C 70.9°F21.6°C 95% Calm Calm -- 29.77 in1008.1 mb 0.00 in0.0 mm 0.00 in0.0 mm 0.19 in4.8 mm
05:00 AM 72.1°F22.3°C 70.6°F21.4°C 95% Calm Calm -- 29.77 in1008.1 mb 0.00 in0.0 mm 0.00 in0.0 mm 0.19 in4.8 mm
05:05 AM 72.1°F22.3°C 70.6°F21.4°C 95% Calm Calm -- 29.77 in1008.1 mb 0.00 in0.0 mm 0.00 in0.0 mm 0.19 in4.8 mm
05:10 AM 71.9°F22.2°C 70.4°F21.3°C 95% Calm Calm -- 29.77 in1008.1 mb 0.00 in0.0 mm 0.00 in0.0 mm 0.19 in4.8 mm
05:15 AM 71.7°F22.1°C 70.2°F21.2°C 95% Calm Calm -- 29.77 in1008.1 mb 0.00 in0.0 mm 0.00 in0.0 mm 0.19 in4.8 mm
05:20 AM 71.6°F22.0°C 70.1°F21.2°C 95% Calm Calm -- 29.77 in1008.1 mb 0.00 in0.0 mm 0.00 in0.0 mm 0.19 in4.8 mm
05:25 AM 71.6°F22.0°C 70.1°F21.2°C 95% Calm Calm -- 29.77 in1008.1 mb 0.00 in0.0 mm 0.00 in0.0 mm 0.19 in4.8 mm
05:30 AM 71.6°F22.0°C 70.1°F21.2°C 95% Calm Calm -- 29.78 in1008.5 mb 0.00 in0.0 mm 0.00 in0.0 mm 0.19 in4.8 mm
05:35 AM 71.5°F21.9°C 70.0°F21.1°C 95% Calm Calm -- 29.78 in1008.5 mb 0.00 in0.0 mm 0.00 in0.0 mm 0.19 in4.8 mm
05:40 AM 71.3°F21.8°C 69.8°F21.0°C 95% Calm Calm -- 29.78 in1008.5 mb 0.00 in0.0 mm 0.00 in0.0 mm 0.19 in4.8 mm
05:45 AM 71.3°F21.8°C 69.8°F21.0°C 95% Calm Calm -- 29.78 in1008.5 mb 0.00 in0.0 mm 0.00 in0.0 mm 0.19 in4.8 mm
05:50 AM 71.2°F21.8°C 69.7°F20.9°C 95% Calm Calm -- 29.78 in1008.5 mb 0.00 in0.0 mm 0.00 in0.0 mm 0.19 in4.8 mm
05:55 AM 71.0°F21.7°C 69.5°F20.8°C 95% Calm Calm -- 29.78 in1008.5 mb 0.00 in0.0 mm 0.00 in0.0 mm 0.19 in4.8 mm
06:00 AM 70.8°F21.6°C 69.3°F20.7°C 95% Calm Calm -- 29.78 in1008.5 mb 0.00 in0.0 mm 0.00 in0.0 mm 0.19 in4.8 mm
06:05 AM 70.7°F21.5°C 69.2°F20.7°C 95% Calm Calm -- 29.78 in1008.5 mb 0.00 in0.0 mm 0.00 in0.0 mm 0.19 in4.8 mm
06:10 AM 70.8°F21.6°C 69.6°F20.9°C 96% Calm Calm -- 29.78 in1008.5 mb 0.00 in0.0 mm 0.00 in0.0 mm 0.19 in4.8 mm
06:15 AM 70.8°F21.6°C 69.6°F20.9°C 96% Calm Calm -- 29.78 in1008.5 mb 0.00 in0.0 mm 0.00 in0.0 mm 0.19 in4.8 mm
06:20 AM 70.7°F21.5°C 69.5°F20.8°C 96% Calm Calm -- 29.78 in1008.5 mb 0.00 in0.0 mm 0.00 in0.0 mm 0.19 in4.8 mm
06:25 AM 70.6°F21.4°C 69.4°F20.8°C 96% Calm Calm -- 29.78 in1008.5 mb 0.00 in0.0 mm 0.00 in0.0 mm 0.19 in4.8 mm
06:30 AM 70.5°F21.4°C 69.3°F20.7°C 96% Calm Calm -- 29.79 in1008.8 mb 0.00 in0.0 mm 0.00 in0.0 mm 0.19 in4.8 mm
06:35 AM 70.6°F21.4°C 69.4°F20.8°C 96% Calm Calm -- 29.79 in1008.8 mb 0.00 in0.0 mm 0.00 in0.0 mm 0.19 in4.8 mm
06:40 AM 70.6°F21.4°C 69.1°F20.6°C 95% Calm Calm -- 29.79 in1008.8 mb 0.00 in0.0 mm 0.00 in0.0 mm 0.19 in4.8 mm
06:45 AM 70.7°F21.5°C 69.2°F20.7°C 95% Calm Calm -- 29.79 in1008.8 mb 0.00 in0.0 mm 0.00 in0.0 mm 0.19 in4.8 mm
06:50 AM 71.0°F21.7°C 69.2°F20.7°C 94% 0.1 mph S0.2 kmh S 1.0 mph1.6 kmh 29.79 in1008.8 mb 0.00 in0.0 mm 0.00 in0.0 mm 0.19 in4.8 mm
06:55 AM 71.6°F22.0°C 69.1°F20.6°C 92% Calm Calm 1.0 mph1.6 kmh 29.79 in1008.8 mb 0.00 in0.0 mm 0.00 in0.0 mm 0.19 in4.8 mm
07:00 AM 72.4°F22.4°C 69.3°F20.7°C 90% Calm Calm 1.0 mph1.6 kmh 29.79 in1008.8 mb 0.00 in0.0 mm 0.00 in0.0 mm 0.19 in4.8 mm
07:05 AM 73.2°F22.9°C 69.8°F21.0°C 89% Calm Calm 1.0 mph1.6 kmh 29.79 in1008.8 mb 0.00 in0.0 mm 0.00 in0.0 mm 0.19 in4.8 mm
07:10 AM 74.1°F23.4°C 70.0°F21.1°C 87% Calm Calm -- 29.79 in1008.8 mb 0.00 in0.0 mm 0.00 in0.0 mm 0.19 in4.8 mm
07:15 AM 74.8°F23.8°C 70.0°F21.1°C 85% Calm Calm -- 29.79 in1008.8 mb 0.00 in0.0 mm 0.00 in0.0 mm 0.19 in4.8 mm
07:20 AM 75.4°F24.1°C 70.6°F21.4°C 85% Calm Calm -- 29.78 in1008.5 mb 0.00 in0.0 mm 0.00 in0.0 mm 0.19 in4.8 mm
07:25 AM 75.9°F24.4°C 71.1°F21.7°C 85% 0.1 mph E0.2 kmh E 2.0 mph3.2 kmh 29.78 in1008.5 mb 0.00 in0.0 mm 0.00 in0.0 mm 0.19 in4.8 mm
07:30 AM 76.9°F24.9°C 71.7°F22.1°C 84% Calm Calm 2.0 mph3.2 kmh 29.78 in1008.5 mb 0.00 in0.0 mm 0.00 in0.0 mm 0.19 in4.8 mm
07:35 AM 77.6°F25.3°C 72.0°F22.2°C 83% 0.1 mph SW0.2 kmh SW 1.0 mph1.6 kmh 29.79 in1008.8 mb 0.00 in0.0 mm 0.00 in0.0 mm 0.19 in4.8 mm
07:40 AM 77.6°F25.3°C 71.7°F22.1°C 82% 0.4 mph SE0.6 kmh SE 3.0 mph4.8 kmh 29.79 in1008.8 mb 0.00 in0.0 mm 0.00 in0.0 mm 0.19 in4.8 mm
07:45 AM 77.6°F25.3°C 72.0°F22.2°C 83% 0.4 mph S0.6 kmh S 3.0 mph4.8 kmh 29.78 in1008.5 mb 0.00 in0.0 mm 0.00 in0.0 mm 0.19 in4.8 mm
07:50 AM 77.5°F25.3°C 71.2°F21.8°C 81% 1.1 mph S1.8 kmh S 4.0 mph6.4 kmh 29.79 in1008.8 mb 0.00 in0.0 mm 0.00 in0.0 mm 0.19 in4.8 mm
07:55 AM 77.9°F25.5°C 72.3°F22.4°C 83% 0.3 mph SE0.5 kmh SE 4.0 mph6.4 kmh 29.79 in1008.8 mb 0.00 in0.0 mm 0.00 in0.0 mm 0.19 in4.8 mm
08:00 AM 78.3°F25.7°C 72.3°F22.4°C 82% 0.4 mph ESE0.6 kmh ESE 2.0 mph3.2 kmh 29.79 in1008.8 mb 0.00 in0.0 mm 0.00 in0.0 mm 0.19 in4.8 mm
08:05 AM 78.7°F25.9°C 71.6°F22.0°C 79% 0.4 mph S0.6 kmh S 2.0 mph3.2 kmh 29.79 in1008.8 mb 0.00 in0.0 mm 0.00 in0.0 mm 0.19 in4.8 mm
08:10 AM 78.9°F26.1°C 72.2°F22.3°C 80% 0.8 mph SE1.3 kmh SE 3.0 mph4.8 kmh 29.79 in1008.8 mb 0.00 in0.0 mm 0.00 in0.0 mm 0.19 in4.8 mm
08:15 AM 79.0°F26.1°C 72.3°F22.4°C 80% 1.0 mph ESE1.6 kmh ESE 3.0 mph4.8 kmh 29.79 in1008.8 mb 0.00 in0.0 mm 0.00 in0.0 mm 0.19 in4.8 mm
08:20 AM 79.2°F26.2°C 72.5°F22.5°C 80% 0.5 mph SE0.8 kmh SE 3.0 mph4.8 kmh 29.79 in1008.8 mb 0.00 in0.0 mm 0.00 in0.0 mm 0.19 in4.8 mm
08:25 AM 79.8°F26.6°C 73.1°F22.8°C 80% 0.7 mph SE1.1 kmh SE 7.0 mph11.3 kmh 29.79 in1008.8 mb 0.00 in0.0 mm 0.00 in0.0 mm 0.19 in4.8 mm
08:30 AM 79.9°F26.6°C 72.8°F22.7°C 79% 1.0 mph SSE1.6 kmh SSE 7.0 mph11.3 kmh 29.79 in1008.8 mb 0.00 in0.0 mm 0.00 in0.0 mm 0.19 in4.8 mm
08:35 AM 80.0°F26.7°C 72.9°F22.7°C 79% 1.4 mph SE2.3 kmh SE 4.0 mph6.4 kmh 29.79 in1008.8 mb 0.00 in0.0 mm 0.00 in0.0 mm 0.19 in4.8 mm
08:40 AM 80.1°F26.7°C 73.0°F22.8°C 79% 0.5 mph S0.8 kmh S 4.0 mph6.4 kmh 29.79 in1008.8 mb 0.00 in0.0 mm 0.00 in0.0 mm 0.19 in4.8 mm
08:45 AM 80.5°F26.9°C 72.6°F22.6°C 77% 1.0 mph SE1.6 kmh SE 4.0 mph6.4 kmh 29.80 in1009.1 mb 0.00 in0.0 mm 0.00 in0.0 mm 0.19 in4.8 mm
08:50 AM 80.6°F27.0°C 73.8°F23.2°C 80% 1.1 mph SE1.8 kmh SE 4.0 mph6.4 kmh 29.80 in1009.1 mb 0.00 in0.0 mm 0.00 in0.0 mm 0.19 in4.8 mm
08:55 AM 81.0°F27.2°C 73.1°F22.8°C 77% 1.3 mph ESE2.1 kmh ESE 5.0 mph8.0 kmh 29.80 in1009.1 mb 0.00 in0.0 mm 0.00 in0.0 mm 0.19 in4.8 mm
09:00 AM 81.4°F27.4°C 73.5°F23.1°C 77% 0.9 mph SE1.4 kmh SE 5.0 mph8.0 kmh 29.80 in1009.1 mb 0.00 in0.0 mm 0.00 in0.0 mm 0.19 in4.8 mm
09:05 AM 82.1°F27.8°C 74.2°F23.4°C 77% 0.6 mph SSE1.0 kmh SSE 3.0 mph4.8 kmh 29.80 in1009.1 mb 0.00 in0.0 mm 0.00 in0.0 mm 0.19 in4.8 mm
09:10 AM 82.8°F28.2°C 73.6°F23.1°C 74% 1.2 mph S1.9 kmh S 4.0 mph6.4 kmh 29.80 in1009.1 mb 0.00 in0.0 mm 0.00 in0.0 mm 0.19 in4.8 mm
09:15 AM 82.9°F28.3°C 72.9°F22.7°C 72% 1.6 mph SSW2.6 kmh SSW 7.0 mph11.3 kmh 29.80 in1009.1 mb 0.00 in0.0 mm 0.00 in0.0 mm 0.19 in4.8 mm
09:20 AM 83.3°F28.5°C 73.7°F23.2°C 73% 1.4 mph SW2.3 kmh SW 7.0 mph11.3 kmh 29.80 in1009.1 mb 0.00 in0.0 mm 0.00 in0.0 mm 0.19 in4.8 mm
09:25 AM 83.4°F28.6°C 73.4°F23.0°C 72% 1.9 mph SSW3.1 kmh SSW 7.0 mph11.3 kmh 29.80 in1009.1 mb 0.00 in0.0 mm 0.00 in0.0 mm 0.19 in4.8 mm
09:30 AM 83.6°F28.7°C 73.2°F22.9°C 71% 2.1 mph S3.4 kmh S 8.0 mph12.9 kmh 29.80 in1009.1 mb 0.00 in0.0 mm 0.00 in0.0 mm 0.19 in4.8 mm
09:35 AM 83.8°F28.8°C 73.4°F23.0°C 71% 1.5 mph S2.4 kmh S 8.0 mph12.9 kmh 29.80 in1009.1 mb 0.00 in0.0 mm 0.00 in0.0 mm 0.19 in4.8 mm
09:40 AM 84.0°F28.9°C 72.7°F22.6°C 69% 2.3 mph SSW3.7 kmh SSW 6.0 mph9.7 kmh 29.80 in1009.1 mb 0.00 in0.0 mm 0.00 in0.0 mm 0.19 in4.8 mm
09:45 AM 84.2°F29.0°C 72.9°F22.7°C 69% 2.0 mph S3.2 kmh S 6.0 mph9.7 kmh 29.80 in1009.1 mb 0.00 in0.0 mm 0.00 in0.0 mm 0.19 in4.8 mm
09:50 AM 84.3°F29.1°C 72.6°F22.6°C 68% 1.8 mph S2.9 kmh S 6.0 mph9.7 kmh 29.80 in1009.1 mb 0.00 in0.0 mm 0.00 in0.0 mm 0.19 in4.8 mm
09:55 AM 84.4°F29.1°C 72.2°F22.3°C 67% 2.0 mph SSW3.2 kmh SSW 5.0 mph8.0 kmh 29.80 in1009.1 mb 0.00 in0.0 mm 0.00 in0.0 mm 0.19 in4.8 mm
10:00 AM 84.7°F29.3°C 72.9°F22.7°C 68% 1.8 mph S2.9 kmh S 5.0 mph8.0 kmh 29.79 in1008.8 mb 0.00 in0.0 mm 0.00 in0.0 mm 0.19 in4.8 mm
10:05 AM 85.3°F29.6°C 73.5°F23.1°C 68% 1.8 mph S2.9 kmh S 7.0 mph11.3 kmh 29.79 in1008.8 mb 0.00 in0.0 mm 0.00 in0.0 mm 0.19 in4.8 mm
10:10 AM 85.7°F29.8°C 72.5°F22.5°C 65% 1.5 mph S2.4 kmh S 7.0 mph11.3 kmh 29.79 in1008.8 mb 0.00 in0.0 mm 0.00 in0.0 mm 0.19 in4.8 mm
10:15 AM 85.9°F29.9°C 73.2°F22.9°C 66% 2.4 mph SSE3.9 kmh SSE 8.0 mph12.9 kmh 29.79 in1008.8 mb 0.00 in0.0 mm 0.00 in0.0 mm 0.19 in4.8 mm
10:20 AM 86.2°F30.1°C 71.6°F22.0°C 62% 2.2 mph S3.5 kmh S 8.0 mph12.9 kmh 29.79 in1008.8 mb 0.00 in0.0 mm 0.00 in0.0 mm 0.19 in4.8 mm
10:25 AM 86.2°F30.1°C 71.1°F21.7°C 61% 3.5 mph SSW5.6 kmh SSW 12.0 mph19.3 kmh 29.79 in1008.8 mb 0.00 in0.0 mm 0.00 in0.0 mm 0.19 in4.8 mm
10:30 AM 86.3°F30.2°C 70.3°F21.3°C 59% 3.6 mph SSW5.8 kmh SSW 12.0 mph19.3 kmh 29.79 in1008.8 mb 0.00 in0.0 mm 0.00 in0.0 mm 0.19 in4.8 mm
10:35 AM 86.2°F30.1°C 70.2°F21.2°C 59% 4.4 mph SSW7.1 kmh SSW 12.0 mph19.3 kmh 29.79 in1008.8 mb 0.00 in0.0 mm 0.00 in0.0 mm 0.19 in4.8 mm
10:40 AM 86.1°F30.1°C 69.6°F20.9°C 58% 4.7 mph SSW7.6 kmh SSW 12.0 mph19.3 kmh 29.79 in1008.8 mb 0.00 in0.0 mm 0.00 in0.0 mm 0.19 in4.8 mm
10:45 AM 86.8°F30.4°C 71.7°F22.1°C 61% 1.9 mph S3.1 kmh S 11.0 mph17.7 kmh 29.78 in1008.5 mb 0.00 in0.0 mm 0.00 in0.0 mm 0.19 in4.8 mm
10:50 AM 87.5°F30.8°C 71.4°F21.9°C 59% 1.8 mph SSW2.9 kmh SSW 6.0 mph9.7 kmh 29.78 in1008.5 mb 0.00 in0.0 mm 0.00 in0.0 mm 0.19 in4.8 mm
10:55 AM 87.6°F30.9°C 70.4°F21.3°C 57% 4.0 mph SW6.4 kmh SW 11.0 mph17.7 kmh 29.78 in1008.5 mb 0.00 in0.0 mm 0.00 in0.0 mm 0.19 in4.8 mm
11:00 AM 87.5°F30.8°C 71.4°F21.9°C 59% 3.9 mph SSW6.3 kmh SSW 13.0 mph20.9 kmh 29.78 in1008.5 mb 0.00 in0.0 mm 0.00 in0.0 mm 0.19 in4.8 mm
11:05 AM 87.8°F31.0°C 71.7°F22.1°C 59% 3.7 mph SW6.0 kmh SW 13.0 mph20.9 kmh 29.78 in1008.5 mb 0.00 in0.0 mm 0.00 in0.0 mm 0.19 in4.8 mm
11:10 AM 88.2°F31.2°C 73.5°F23.1°C 62% 2.9 mph S4.7 kmh S 9.0 mph14.5 kmh 29.78 in1008.5 mb 0.00 in0.0 mm 0.00 in0.0 mm 0.19 in4.8 mm
11:15 AM 88.7°F31.5°C 72.0°F22.2°C 58% 1.9 mph SSW3.1 kmh SSW 8.0 mph12.9 kmh 29.77 in1008.1 mb 0.00 in0.0 mm 0.00 in0.0 mm 0.19 in4.8 mm
11:20 AM 89.0°F31.7°C 72.8°F22.7°C 59% 2.7 mph S4.3 kmh S 7.0 mph11.3 kmh 29.77 in1008.1 mb 0.00 in0.0 mm 0.00 in0.0 mm 0.19 in4.8 mm
11:25 AM 89.2°F31.8°C 73.0°F22.8°C 59% 2.2 mph S3.5 kmh S 7.0 mph11.3 kmh 29.77 in1008.1 mb 0.00 in0.0 mm 0.00 in0.0 mm 0.19 in4.8 mm
11:30 AM 89.5°F31.9°C 73.7°F23.2°C 60% 2.6 mph S4.2 kmh S 9.0 mph14.5 kmh 29.77 in1008.1 mb 0.00 in0.0 mm 0.00 in0.0 mm 0.19 in4.8 mm
11:35 AM 89.8°F32.1°C 73.0°F22.8°C 58% 2.2 mph S3.5 kmh S 9.0 mph14.5 kmh 29.77 in1008.1 mb 0.00 in0.0 mm 0.00 in0.0 mm 0.19 in4.8 mm
11:40 AM 90.4°F32.4°C 74.1°F23.4°C 59% 1.9 mph S3.1 kmh S 8.0 mph12.9 kmh 29.77 in1008.1 mb 0.00 in0.0 mm 0.00 in0.0 mm 0.19 in4.8 mm
11:45 AM 90.5°F32.5°C 72.1°F22.3°C 55% 2.4 mph SSW3.9 kmh SSW 9.0 mph14.5 kmh 29.77 in1008.1 mb 0.00 in0.0 mm 0.00 in0.0 mm 0.19 in4.8 mm
11:50 AM 91.1°F32.8°C 73.2°F22.9°C 56% 1.5 mph S2.4 kmh S 9.0 mph14.5 kmh 29.77 in1008.1 mb 0.00 in0.0 mm 0.00 in0.0 mm 0.19 in4.8 mm
11:55 AM 91.3°F32.9°C 73.4°F23.0°C 56% 1.5 mph S2.4 kmh S 5.0 mph8.0 kmh 29.77 in1008.1 mb 0.00 in0.0 mm 0.00 in0.0 mm 0.19 in4.8 mm
12:00 PM 91.6°F33.1°C 73.6°F23.1°C 56% 1.5 mph SSE2.4 kmh SSE 5.0 mph8.0 kmh 29.76 in1007.8 mb 0.00 in0.0 mm 0.00 in0.0 mm 0.19 in4.8 mm
12:05 PM 91.8°F33.2°C 72.2°F22.3°C 53% 2.8 mph SSW4.5 kmh SSW 7.0 mph11.3 kmh 29.77 in1008.1 mb 0.00 in0.0 mm 0.00 in0.0 mm 0.19 in4.8 mm
12:10 PM 91.9°F33.3°C 71.7°F22.1°C 52% 2.8 mph SSW4.5 kmh SSW 9.0 mph14.5 kmh 29.77 in1008.1 mb 0.00 in0.0 mm 0.00 in0.0 mm 0.19 in4.8 mm
12:15 PM 91.9°F33.3°C 72.8°F22.7°C 54% 3.0 mph SW4.8 kmh SW 9.0 mph14.5 kmh 29.76 in1007.8 mb 0.00 in0.0 mm 0.00 in0.0 mm 0.19 in4.8 mm
12:20 PM 92.2°F33.4°C 72.6°F22.6°C 53% 3.3 mph SW5.3 kmh SW 9.0 mph14.5 kmh 29.76 in1007.8 mb 0.00 in0.0 mm 0.00 in0.0 mm 0.19 in4.8 mm
12:25 PM 92.2°F33.4°C 72.6°F22.6°C 53% 2.9 mph SW4.7 kmh SW 8.0 mph12.9 kmh 29.76 in1007.8 mb 0.00 in0.0 mm 0.00 in0.0 mm 0.19 in4.8 mm
12:30 PM 92.7°F33.7°C 74.7°F23.7°C 56% 2.0 mph S3.2 kmh S 8.0 mph12.9 kmh 29.76 in1007.8 mb 0.00 in0.0 mm 0.00 in0.0 mm 0.19 in4.8 mm
12:35 PM 93.1°F33.9°C 73.4°F23.0°C 53% 1.8 mph S2.9 kmh S 6.0 mph9.7 kmh 29.76 in1007.8 mb 0.00 in0.0 mm 0.00 in0.0 mm 0.19 in4.8 mm
12:40 PM 93.2°F34.0°C 75.1°F23.9°C 56% 2.0 mph S3.2 kmh S 7.0 mph11.3 kmh 29.76 in1007.8 mb 0.00 in0.0 mm 0.00 in0.0 mm 0.19 in4.8 mm
12:45 PM 93.1°F33.9°C 73.4°F23.0°C 53% 2.7 mph S4.3 kmh S 8.0 mph12.9 kmh 29.76 in1007.8 mb 0.00 in0.0 mm 0.00 in0.0 mm 0.19 in4.8 mm
12:50 PM 93.3°F34.1°C 74.7°F23.7°C 55% 2.8 mph SSW4.5 kmh SSW 8.0 mph12.9 kmh 29.76 in1007.8 mb 0.00 in0.0 mm 0.00 in0.0 mm 0.19 in4.8 mm
12:55 PM 93.5°F34.2°C 74.9°F23.8°C 55% 2.7 mph SSW4.3 kmh SSW 8.0 mph12.9 kmh 29.76 in1007.8 mb 0.00 in0.0 mm 0.00 in0.0 mm 0.19 in4.8 mm
01:00 PM 93.6°F34.2°C 75.0°F23.9°C 55% 2.8 mph SSE4.5 kmh SSE 9.0 mph14.5 kmh 29.75 in1007.5 mb 0.00 in0.0 mm 0.00 in0.0 mm 0.19 in4.8 mm
01:05 PM 93.7°F34.3°C 75.0°F23.9°C 55% 2.2 mph S3.5 kmh S 9.0 mph14.5 kmh 29.75 in1007.5 mb 0.00 in0.0 mm 0.00 in0.0 mm 0.19 in4.8 mm
01:10 PM 94.2°F34.6°C 76.1°F24.5°C 56% 2.3 mph SSE3.7 kmh SSE 5.0 mph8.0 kmh 29.75 in1007.5 mb 0.00 in0.0 mm 0.00 in0.0 mm 0.19 in4.8 mm
01:15 PM 94.4°F34.7°C 76.8°F24.9°C 57% 1.6 mph SSW2.6 kmh SSW 8.0 mph12.9 kmh 29.75 in1007.5 mb 0.00 in0.0 mm 0.00 in0.0 mm 0.19 in4.8 mm
01:20 PM 94.2°F34.6°C 75.5°F24.2°C 55% 3.3 mph S5.3 kmh S 12.0 mph19.3 kmh 29.75 in1007.5 mb 0.00 in0.0 mm 0.00 in0.0 mm 0.19 in4.8 mm
01:25 PM 94.4°F34.7°C 76.2°F24.6°C 56% 2.9 mph S4.7 kmh S 12.0 mph19.3 kmh 29.75 in1007.5 mb 0.00 in0.0 mm 0.00 in0.0 mm 0.19 in4.8 mm
01:30 PM 94.5°F34.7°C 75.8°F24.3°C 55% 2.2 mph S3.5 kmh S 7.0 mph11.3 kmh 29.75 in1007.5 mb 0.00 in0.0 mm 0.00 in0.0 mm 0.19 in4.8 mm
01:35 PM 94.8°F34.9°C 77.1°F25.1°C 57% 2.4 mph SSW3.9 kmh SSW 6.0 mph9.7 kmh 29.75 in1007.5 mb 0.00 in0.0 mm 0.00 in0.0 mm 0.19 in4.8 mm
01:40 PM 94.5°F34.7°C 76.3°F24.6°C 56% 3.4 mph SE5.5 kmh SE 7.0 mph11.3 kmh 29.75 in1007.5 mb 0.00 in0.0 mm 0.00 in0.0 mm 0.19 in4.8 mm
01:45 PM 94.7°F34.8°C 74.9°F23.8°C 53% 2.0 mph SSW3.2 kmh SSW 7.0 mph11.3 kmh 29.74 in1007.1 mb 0.00 in0.0 mm 0.00 in0.0 mm 0.19 in4.8 mm
01:50 PM 94.5°F34.7°C 76.3°F24.6°C 56% 3.3 mph SSE5.3 kmh SSE 9.0 mph14.5 kmh 29.74 in1007.1 mb 0.00 in0.0 mm 0.00 in0.0 mm 0.19 in4.8 mm
01:55 PM 94.5°F34.7°C 76.3°F24.6°C 56% 2.9 mph S4.7 kmh S 9.0 mph14.5 kmh 29.74 in1007.1 mb 0.00 in0.0 mm 0.00 in0.0 mm 0.19 in4.8 mm
02:00 PM 94.8°F34.9°C 77.1°F25.1°C 57% 2.4 mph S3.9 kmh S 7.0 mph11.3 kmh 29.74 in1007.1 mb 0.00 in0.0 mm 0.00 in0.0 mm 0.19 in4.8 mm
02:05 PM 94.9°F34.9°C 77.2°F25.1°C 57% 2.6 mph SE4.2 kmh SE 18.0 mph29.0 kmh 29.74 in1007.1 mb 0.00 in0.0 mm 0.00 in0.0 mm 0.19 in4.8 mm
02:10 PM 95.3°F35.2°C 76.5°F24.7°C 55% 2.9 mph S4.7 kmh S 18.0 mph29.0 kmh 29.74 in1007.1 mb 0.00 in0.0 mm 0.00 in0.0 mm 0.19 in4.8 mm
02:15 PM 95.5°F35.3°C 76.7°F24.8°C 55% 2.1 mph S3.4 kmh S 10.0 mph16.1 kmh 29.74 in1007.1 mb 0.00 in0.0 mm 0.00 in0.0 mm 0.19 in4.8 mm
02:20 PM 95.3°F35.2°C 76.0°F24.4°C 54% 3.1 mph SSE5.0 kmh SSE 12.0 mph19.3 kmh 29.74 in1007.1 mb 0.00 in0.0 mm 0.00 in0.0 mm 0.19 in4.8 mm
02:25 PM 95.3°F35.2°C 77.6°F25.3°C 57% 2.2 mph SSE3.5 kmh SSE 12.0 mph19.3 kmh 29.74 in1007.1 mb 0.00 in0.0 mm 0.00 in0.0 mm 0.19 in4.8 mm
02:30 PM 95.3°F35.2°C 77.6°F25.3°C 57% 2.4 mph SSE3.9 kmh SSE 6.0 mph9.7 kmh 29.73 in1006.8 mb 0.00 in0.0 mm 0.00 in0.0 mm 0.19 in4.8 mm
02:35 PM 95.6°F35.3°C 76.8°F24.9°C 55% 2.9 mph S4.7 kmh S 12.0 mph19.3 kmh 29.73 in1006.8 mb 0.00 in0.0 mm 0.00 in0.0 mm 0.19 in4.8 mm
02:40 PM 95.6°F35.3°C 77.4°F25.2°C 56% 3.5 mph S5.6 kmh S 12.0 mph19.3 kmh 29.73 in1006.8 mb 0.00 in0.0 mm 0.00 in0.0 mm 0.19 in4.8 mm
02:45 PM 95.6°F35.3°C 75.7°F24.3°C 53% 2.7 mph S4.3 kmh S 9.0 mph14.5 kmh 29.73 in1006.8 mb 0.00 in0.0 mm 0.00 in0.0 mm 0.19 in4.8 mm
02:50 PM 95.8°F35.4°C 75.9°F24.4°C 53% 3.3 mph SSW5.3 kmh SSW 11.0 mph17.7 kmh 29.73 in1006.8 mb 0.00 in0.0 mm 0.00 in0.0 mm 0.19 in4.8 mm
02:55 PM 96.0°F35.6°C 76.6°F24.8°C 54% 3.5 mph S5.6 kmh S 12.0 mph19.3 kmh 29.73 in1006.8 mb 0.00 in0.0 mm 0.00 in0.0 mm 0.19 in4.8 mm
03:00 PM 96.2°F35.7°C 77.9°F25.5°C 56% 3.0 mph SSW4.8 kmh SSW 12.0 mph19.3 kmh 29.73 in1006.8 mb 0.00 in0.0 mm 0.00 in0.0 mm 0.19 in4.8 mm
03:05 PM 96.5°F35.8°C 78.2°F25.7°C 56% 2.4 mph SSE3.9 kmh SSE 7.0 mph11.3 kmh 29.73 in1006.8 mb 0.00 in0.0 mm 0.00 in0.0 mm 0.19 in4.8 mm
03:10 PM 96.4°F35.8°C 77.5°F25.3°C 55% 2.8 mph SSE4.5 kmh SSE 10.0 mph16.1 kmh 29.73 in1006.8 mb 0.00 in0.0 mm 0.00 in0.0 mm 0.19 in4.8 mm
03:15 PM 96.0°F35.6°C 75.5°F24.2°C 52% 3.6 mph SSE5.8 kmh SSE 10.0 mph16.1 kmh 29.73 in1006.8 mb 0.00 in0.0 mm 0.00 in0.0 mm 0.19 in4.8 mm
03:20 PM 96.3°F35.7°C 76.9°F24.9°C 54% 2.8 mph S4.5 kmh S 9.0 mph14.5 kmh 29.73 in1006.8 mb 0.00 in0.0 mm 0.00 in0.0 mm 0.19 in4.8 mm
03:25 PM 96.4°F35.8°C 77.0°F25.0°C 54% 2.6 mph SSE4.2 kmh SSE 8.0 mph12.9 kmh 29.73 in1006.8 mb 0.00 in0.0 mm 0.00 in0.0 mm 0.19 in4.8 mm
03:30 PM 96.2°F35.7°C 75.7°F24.3°C 52% 3.4 mph SE5.5 kmh SE 13.0 mph20.9 kmh 29.73 in1006.8 mb 0.00 in0.0 mm 0.00 in0.0 mm 0.19 in4.8 mm
03:35 PM 96.2°F35.7°C 76.2°F24.6°C 53% 3.3 mph S5.3 kmh S 13.0 mph20.9 kmh 29.73 in1006.8 mb 0.00 in0.0 mm 0.00 in0.0 mm 0.19 in4.8 mm
03:40 PM 96.5°F35.8°C 77.1°F25.1°C 54% 2.6 mph S4.2 kmh S 12.0 mph19.3 kmh 29.73 in1006.8 mb 0.00 in0.0 mm 0.00 in0.0 mm 0.19 in4.8 mm
03:45 PM 96.7°F35.9°C 77.3°F25.2°C 54% 2.4 mph S3.9 kmh S 11.0 mph17.7 kmh 29.72 in1006.4 mb 0.00 in0.0 mm 0.00 in0.0 mm 0.19 in4.8 mm
03:50 PM 96.7°F35.9°C 77.8°F25.4°C 55% 2.5 mph S4.0 kmh S 11.0 mph17.7 kmh 29.72 in1006.4 mb 0.00 in0.0 mm 0.00 in0.0 mm 0.19 in4.8 mm
03:55 PM 96.7°F35.9°C 76.7°F24.8°C 53% 2.8 mph S4.5 kmh S 7.0 mph11.3 kmh 29.72 in1006.4 mb 0.00 in0.0 mm 0.00 in0.0 mm 0.19 in4.8 mm
04:00 PM 96.2°F35.7°C 77.4°F25.2°C 55% 3.4 mph SSE5.5 kmh SSE 9.0 mph14.5 kmh 29.72 in1006.4 mb 0.00 in0.0 mm 0.00 in0.0 mm 0.19 in4.8 mm
04:05 PM 96.2°F35.7°C 77.4°F25.2°C 55% 2.5 mph SE4.0 kmh SE 9.0 mph14.5 kmh 29.72 in1006.4 mb 0.00 in0.0 mm 0.00 in0.0 mm 0.19 in4.8 mm
04:10 PM 96.6°F35.9°C 77.2°F25.1°C 54% 2.5 mph SSE4.0 kmh SSE 9.0 mph14.5 kmh 29.72 in1006.4 mb 0.00 in0.0 mm 0.00 in0.0 mm 0.19 in4.8 mm
04:15 PM 96.5°F35.8°C 77.6°F25.3°C 55% 2.3 mph SE3.7 kmh SE 8.0 mph12.9 kmh 29.72 in1006.4 mb 0.00 in0.0 mm 0.00 in0.0 mm 0.19 in4.8 mm
04:20 PM 96.5°F35.8°C 77.6°F25.3°C 55% 2.4 mph SE3.9 kmh SE 8.0 mph12.9 kmh 29.72 in1006.4 mb 0.00 in0.0 mm 0.00 in0.0 mm 0.19 in4.8 mm
04:25 PM 96.9°F36.1°C 76.9°F24.9°C 53% 2.4 mph SSW3.9 kmh SSW 11.0 mph17.7 kmh 29.72 in1006.4 mb 0.00 in0.0 mm 0.00 in0.0 mm 0.19 in4.8 mm
04:30 PM 96.9°F36.1°C 77.5°F25.3°C 54% 3.3 mph SSW5.3 kmh SSW 11.0 mph17.7 kmh 29.71 in1006.1 mb 0.00 in0.0 mm 0.00 in0.0 mm 0.19 in4.8 mm
04:35 PM 96.5°F35.8°C 76.5°F24.7°C 53% 3.7 mph SSE6.0 kmh SSE 9.0 mph14.5 kmh 29.72 in1006.4 mb 0.00 in0.0 mm 0.00 in0.0 mm 0.19 in4.8 mm
04:40 PM 96.3°F35.7°C 76.3°F24.6°C 53% 2.3 mph SSE3.7 kmh SSE 8.0 mph12.9 kmh 29.72 in1006.4 mb 0.00 in0.0 mm 0.00 in0.0 mm 0.19 in4.8 mm
04:45 PM 96.2°F35.7°C 76.2°F24.6°C 53% 2.6 mph SSE4.2 kmh SSE 9.0 mph14.5 kmh 29.72 in1006.4 mb 0.00 in0.0 mm 0.00 in0.0 mm 0.19 in4.8 mm
04:50 PM 96.3°F35.7°C 78.0°F25.6°C 56% 2.3 mph S3.7 kmh S 9.0 mph14.5 kmh 29.72 in1006.4 mb 0.00 in0.0 mm 0.00 in0.0 mm 0.19 in4.8 mm
04:55 PM 96.3°F35.7°C 76.9°F24.9°C 54% 2.5 mph SSE4.0 kmh SSE 6.0 mph9.7 kmh 29.72 in1006.4 mb 0.00 in0.0 mm 0.00 in0.0 mm 0.19 in4.8 mm
05:00 PM 96.2°F35.7°C 76.2°F24.6°C 53% 2.1 mph S3.4 kmh S 7.0 mph11.3 kmh 29.72 in1006.4 mb 0.00 in0.0 mm 0.00 in0.0 mm 0.19 in4.8 mm
05:05 PM 96.2°F35.7°C 76.2°F24.6°C 53% 2.3 mph SSE3.7 kmh SSE 8.0 mph12.9 kmh 29.72 in1006.4 mb 0.00 in0.0 mm 0.00 in0.0 mm 0.19 in4.8 mm
05:10 PM 96.4°F35.8°C 77.0°F25.0°C 54% 2.1 mph S3.4 kmh S 8.0 mph12.9 kmh 29.72 in1006.4 mb 0.00 in0.0 mm 0.00 in0.0 mm 0.19 in4.8 mm
05:15 PM 96.4°F35.8°C 76.4°F24.7°C 53% 2.8 mph SSE4.5 kmh SSE 8.0 mph12.9 kmh 29.72 in1006.4 mb 0.00 in0.0 mm 0.00 in0.0 mm 0.19 in4.8 mm
05:20 PM 95.9°F35.5°C 76.5°F24.7°C 54% 2.4 mph SSE3.9 kmh SSE 8.0 mph12.9 kmh 29.72 in1006.4 mb 0.00 in0.0 mm 0.00 in0.0 mm 0.19 in4.8 mm
05:25 PM 96.0°F35.6°C 77.2°F25.1°C 55% 2.0 mph SE3.2 kmh SE 8.0 mph12.9 kmh 29.71 in1006.1 mb 0.00 in0.0 mm 0.00 in0.0 mm 0.19 in4.8 mm
05:30 PM 96.2°F35.7°C 77.9°F25.5°C 56% 2.5 mph SSE4.0 kmh SSE 8.0 mph12.9 kmh 29.71 in1006.1 mb 0.00 in0.0 mm 0.00 in0.0 mm 0.19 in4.8 mm
05:35 PM 95.9°F35.5°C 77.1°F25.1°C 55% 2.8 mph SSE4.5 kmh SSE 8.0 mph12.9 kmh 29.71 in1006.1 mb 0.00 in0.0 mm 0.00 in0.0 mm 0.19 in4.8 mm
05:40 PM 95.9°F35.5°C 78.2°F25.7°C 57% 2.4 mph S3.9 kmh S 13.0 mph20.9 kmh 29.71 in1006.1 mb 0.00 in0.0 mm 0.00 in0.0 mm 0.19 in4.8 mm
05:45 PM 95.5°F35.3°C 76.7°F24.8°C 55% 2.2 mph S3.5 kmh S 13.0 mph20.9 kmh 29.71 in1006.1 mb 0.00 in0.0 mm 0.00 in0.0 mm 0.19 in4.8 mm
05:50 PM 95.0°F35.0°C 76.3°F24.6°C 55% 2.0 mph S3.2 kmh S 7.0 mph11.3 kmh 29.71 in1006.1 mb 0.00 in0.0 mm 0.00 in0.0 mm 0.19 in4.8 mm
05:55 PM 95.5°F35.3°C 77.8°F25.4°C 57% 1.8 mph S2.9 kmh S 9.0 mph14.5 kmh 29.70 in1005.8 mb 0.00 in0.0 mm 0.00 in0.0 mm 0.19 in4.8 mm
06:00 PM 96.0°F35.6°C 77.7°F25.4°C 56% 1.5 mph SSE2.4 kmh SSE 9.0 mph14.5 kmh 29.70 in1005.8 mb 0.00 in0.0 mm 0.00 in0.0 mm 0.19 in4.8 mm
06:05 PM 95.9°F35.5°C 77.6°F25.3°C 56% 2.9 mph SE4.7 kmh SE 8.0 mph12.9 kmh 29.70 in1005.8 mb 0.00 in0.0 mm 0.00 in0.0 mm 0.19 in4.8 mm
06:10 PM 95.6°F35.3°C 77.4°F25.2°C 56% 2.8 mph SE4.5 kmh SE 8.0 mph12.9 kmh 29.70 in1005.8 mb 0.00 in0.0 mm 0.00 in0.0 mm 0.19 in4.8 mm
06:15 PM 95.1°F35.1°C 76.9°F24.9°C 56% 3.6 mph SE5.8 kmh SE 9.0 mph14.5 kmh 29.70 in1005.8 mb 0.00 in0.0 mm 0.00 in0.0 mm 0.19 in4.8 mm
06:20 PM 94.3°F34.6°C 76.7°F24.8°C 57% 2.2 mph SSE3.5 kmh SSE 9.0 mph14.5 kmh 29.70 in1005.8 mb 0.00 in0.0 mm 0.00 in0.0 mm 0.19 in4.8 mm
06:25 PM 94.3°F34.6°C 77.2°F25.1°C 58% 4.0 mph SE6.4 kmh SE 14.0 mph22.5 kmh 29.70 in1005.8 mb 0.00 in0.0 mm 0.00 in0.0 mm 0.19 in4.8 mm
06:30 PM 94.1°F34.5°C 76.5°F24.7°C 57% 2.8 mph SSE4.5 kmh SSE 14.0 mph22.5 kmh 29.70 in1005.8 mb 0.00 in0.0 mm 0.00 in0.0 mm 0.19 in4.8 mm
06:35 PM 94.3°F34.6°C 77.2°F25.1°C 58% 1.9 mph SSE3.1 kmh SSE 8.0 mph12.9 kmh 29.71 in1006.1 mb 0.00 in0.0 mm 0.00 in0.0 mm 0.19 in4.8 mm
06:40 PM 94.6°F34.8°C 77.0°F25.0°C 57% 2.4 mph SSE3.9 kmh SSE 7.0 mph11.3 kmh 29.70 in1005.8 mb 0.00 in0.0 mm 0.00 in0.0 mm 0.19 in4.8 mm
06:45 PM 94.7°F34.8°C 77.6°F25.3°C 58% 2.4 mph S3.9 kmh S 7.0 mph11.3 kmh 29.70 in1005.8 mb 0.00 in0.0 mm 0.00 in0.0 mm 0.19 in4.8 mm
06:50 PM 94.5°F34.7°C 76.9°F24.9°C 57% 3.1 mph SSE5.0 kmh SSE 10.0 mph16.1 kmh 29.70 in1005.8 mb 0.00 in0.0 mm 0.00 in0.0 mm 0.19 in4.8 mm
06:55 PM 94.0°F34.4°C 76.9°F24.9°C 58% 3.7 mph SE6.0 kmh SE 13.0 mph20.9 kmh 29.70 in1005.8 mb 0.00 in0.0 mm 0.00 in0.0 mm 0.19 in4.8 mm
07:00 PM 94.0°F34.4°C 76.9°F24.9°C 58% 2.5 mph SSE4.0 kmh SSE 13.0 mph20.9 kmh 29.71 in1006.1 mb 0.00 in0.0 mm 0.00 in0.0 mm 0.19 in4.8 mm
07:05 PM 94.0°F34.4°C 76.9°F24.9°C 58% 2.2 mph SE3.5 kmh SE 11.0 mph17.7 kmh 29.71 in1006.1 mb 0.00 in0.0 mm 0.00 in0.0 mm 0.19 in4.8 mm
07:10 PM 93.9°F34.4°C 76.8°F24.9°C 58% 2.0 mph SSE3.2 kmh SSE 7.0 mph11.3 kmh 29.71 in1006.1 mb 0.00 in0.0 mm 0.00 in0.0 mm 0.19 in4.8 mm
07:15 PM 93.5°F34.2°C 76.5°F24.7°C 58% 2.6 mph SE4.2 kmh SE 8.0 mph12.9 kmh 29.70 in1005.8 mb 0.00 in0.0 mm 0.00 in0.0 mm 0.19 in4.8 mm
07:20 PM 93.2°F34.0°C 76.7°F24.8°C 59% 2.2 mph SSE3.5 kmh SSE 8.0 mph12.9 kmh 29.70 in1005.8 mb 0.00 in0.0 mm 0.00 in0.0 mm 0.19 in4.8 mm
07:25 PM 92.9°F33.8°C 76.9°F24.9°C 60% 3.1 mph SE5.0 kmh SE 8.0 mph12.9 kmh 29.71 in1006.1 mb 0.00 in0.0 mm 0.00 in0.0 mm 0.19 in4.8 mm
07:30 PM 92.7°F33.7°C 77.2°F25.1°C 61% 2.3 mph SE3.7 kmh SE 10.0 mph16.1 kmh 29.71 in1006.1 mb 0.00 in0.0 mm 0.00 in0.0 mm 0.19 in4.8 mm
07:35 PM 92.5°F33.6°C 77.1°F25.1°C 61% 2.5 mph SE4.0 kmh SE 10.0 mph16.1 kmh 29.71 in1006.1 mb 0.00 in0.0 mm 0.00 in0.0 mm 0.19 in4.8 mm
07:40 PM 92.1°F33.4°C 76.7°F24.8°C 61% 2.9 mph SE4.7 kmh SE 11.0 mph17.7 kmh 29.71 in1006.1 mb 0.00 in0.0 mm 0.00 in0.0 mm 0.19 in4.8 mm
07:45 PM 92.1°F33.4°C 77.2°F25.1°C 62% 1.6 mph SE2.6 kmh SE 11.0 mph17.7 kmh 29.71 in1006.1 mb 0.00 in0.0 mm 0.00 in0.0 mm 0.19 in4.8 mm
07:50 PM 91.7°F33.2°C 76.8°F24.9°C 62% 2.1 mph SE3.4 kmh SE 7.0 mph11.3 kmh 29.71 in1006.1 mb 0.00 in0.0 mm 0.00 in0.0 mm 0.19 in4.8 mm
07:55 PM 91.5°F33.1°C 76.6°F24.8°C 62% 1.7 mph SE2.7 kmh SE 7.0 mph11.3 kmh 29.71 in1006.1 mb 0.00 in0.0 mm 0.00 in0.0 mm 0.19 in4.8 mm
08:00 PM 91.1°F32.8°C 76.2°F24.6°C 62% 2.5 mph SE4.0 kmh SE 7.0 mph11.3 kmh 29.71 in1006.1 mb 0.00 in0.0 mm 0.00 in0.0 mm 0.19 in4.8 mm
08:05 PM 90.7°F32.6°C 76.3°F24.6°C 63% 2.0 mph SE3.2 kmh SE 7.0 mph11.3 kmh 29.71 in1006.1 mb 0.00 in0.0 mm 0.00 in0.0 mm 0.19 in4.8 mm
08:10 PM 90.2°F32.3°C 76.3°F24.6°C 64% 1.9 mph S3.1 kmh S 7.0 mph11.3 kmh 29.71 in1006.1 mb 0.00 in0.0 mm 0.00 in0.0 mm 0.19 in4.8 mm
08:15 PM 89.8°F32.1°C 76.0°F24.4°C 64% 1.9 mph SE3.1 kmh SE 7.0 mph11.3 kmh 29.71 in1006.1 mb 0.00 in0.0 mm 0.00 in0.0 mm 0.19 in4.8 mm
08:20 PM 89.4°F31.9°C 75.6°F24.2°C 64% 1.3 mph SE2.1 kmh SE 6.0 mph9.7 kmh 29.71 in1006.1 mb 0.00 in0.0 mm 0.00 in0.0 mm 0.19 in4.8 mm
08:25 PM 89.0°F31.7°C 75.7°F24.3°C 65% 2.5 mph SE4.0 kmh SE 9.0 mph14.5 kmh 29.72 in1006.4 mb 0.00 in0.0 mm 0.00 in0.0 mm 0.19 in4.8 mm
08:30 PM 88.8°F31.6°C 75.9°F24.4°C 66% 1.8 mph SE2.9 kmh SE 9.0 mph14.5 kmh 29.72 in1006.4 mb 0.00 in0.0 mm 0.00 in0.0 mm 0.19 in4.8 mm
08:35 PM 88.4°F31.3°C 76.0°F24.4°C 67% 1.1 mph SE1.8 kmh SE 8.0 mph12.9 kmh 29.72 in1006.4 mb 0.00 in0.0 mm 0.00 in0.0 mm 0.19 in4.8 mm
08:40 PM 88.3°F31.3°C 75.9°F24.4°C 67% 2.5 mph SE4.0 kmh SE 9.0 mph14.5 kmh 29.72 in1006.4 mb 0.00 in0.0 mm 0.00 in0.0 mm 0.19 in4.8 mm
08:45 PM 88.0°F31.1°C 76.1°F24.5°C 68% 2.7 mph SE4.3 kmh SE 9.0 mph14.5 kmh 29.72 in1006.4 mb 0.00 in0.0 mm 0.00 in0.0 mm 0.19 in4.8 mm
08:50 PM 87.6°F30.9°C 76.1°F24.5°C 69% 1.5 mph SE2.4 kmh SE 9.0 mph14.5 kmh 29.73 in1006.8 mb 0.00 in0.0 mm 0.00 in0.0 mm 0.19 in4.8 mm
08:55 PM 87.4°F30.8°C 76.4°F24.7°C 70% 1.8 mph SE2.9 kmh SE 8.0 mph12.9 kmh 29.73 in1006.8 mb 0.00 in0.0 mm 0.00 in0.0 mm 0.19 in4.8 mm
09:00 PM 87.2°F30.7°C 76.2°F24.6°C 70% 2.0 mph SE3.2 kmh SE 8.0 mph12.9 kmh 29.73 in1006.8 mb 0.00 in0.0 mm 0.00 in0.0 mm 0.19 in4.8 mm
09:05 PM 86.9°F30.5°C 75.9°F24.4°C 70% 2.4 mph SE3.9 kmh SE 9.0 mph14.5 kmh 29.73 in1006.8 mb 0.00 in0.0 mm 0.00 in0.0 mm 0.19 in4.8 mm
09:10 PM 86.6°F30.3°C 76.0°F24.4°C 71% 1.9 mph SE3.1 kmh SE 9.0 mph14.5 kmh 29.73 in1006.8 mb 0.00 in0.0 mm 0.00 in0.0 mm 0.19 in4.8 mm
09:15 PM 86.6°F30.3°C 76.0°F24.4°C 71% 2.6 mph SE4.2 kmh SE 10.0 mph16.1 kmh 29.73 in1006.8 mb 0.00 in0.0 mm 0.00 in0.0 mm 0.19 in4.8 mm
09:20 PM 86.5°F30.3°C 76.0°F24.4°C 71% 1.8 mph SE2.9 kmh SE 10.0 mph16.1 kmh 29.73 in1006.8 mb 0.00 in0.0 mm 0.00 in0.0 mm 0.19 in4.8 mm
09:25 PM 86.3°F30.2°C 75.8°F24.3°C 71% 1.8 mph SE2.9 kmh SE 5.0 mph8.0 kmh 29.73 in1006.8 mb 0.00 in0.0 mm 0.00 in0.0 mm 0.19 in4.8 mm
09:30 PM 86.3°F30.2°C 75.8°F24.3°C 71% 2.4 mph SE3.9 kmh SE 8.0 mph12.9 kmh 29.73 in1006.8 mb 0.00 in0.0 mm 0.00 in0.0 mm 0.19 in4.8 mm
09:35 PM 86.1°F30.1°C 76.0°F24.4°C 72% 2.5 mph SE4.0 kmh SE 9.0 mph14.5 kmh 29.73 in1006.8 mb 0.00 in0.0 mm 0.00 in0.0 mm 0.19 in4.8 mm
09:40 PM 86.0°F30.0°C 75.9°F24.4°C 72% 1.8 mph SE2.9 kmh SE 9.0 mph14.5 kmh 29.74 in1007.1 mb 0.00 in0.0 mm 0.00 in0.0 mm 0.19 in4.8 mm
09:45 PM 85.9°F29.9°C 75.8°F24.3°C 72% 1.5 mph SE2.4 kmh SE 9.0 mph14.5 kmh 29.74 in1007.1 mb 0.00 in0.0 mm 0.00 in0.0 mm 0.19 in4.8 mm
09:50 PM 85.8°F29.9°C 75.7°F24.3°C 72% 2.2 mph SE3.5 kmh SE 7.0 mph11.3 kmh 29.74 in1007.1 mb 0.00 in0.0 mm 0.00 in0.0 mm 0.19 in4.8 mm
09:55 PM 85.7°F29.8°C 75.6°F24.2°C 72% 1.7 mph SE2.7 kmh SE 9.0 mph14.5 kmh 29.74 in1007.1 mb 0.00 in0.0 mm 0.00 in0.0 mm 0.19 in4.8 mm
10:00 PM 85.6°F29.8°C 75.5°F24.2°C 72% 2.4 mph SE3.9 kmh SE 9.0 mph14.5 kmh 29.74 in1007.1 mb 0.00 in0.0 mm 0.00 in0.0 mm 0.19 in4.8 mm
10:05 PM 85.5°F29.7°C 75.4°F24.1°C 72% 2.5 mph SE4.0 kmh SE 9.0 mph14.5 kmh 29.75 in1007.5 mb 0.00 in0.0 mm 0.00 in0.0 mm 0.19 in4.8 mm
10:10 PM 85.4°F29.7°C 75.3°F24.1°C 72% 1.8 mph SE2.9 kmh SE 8.0 mph12.9 kmh 29.75 in1007.5 mb 0.00 in0.0 mm 0.00 in0.0 mm 0.19 in4.8 mm
10:15 PM 85.3°F29.6°C 75.6°F24.2°C 73% 1.9 mph SE3.1 kmh SE 7.0 mph11.3 kmh 29.75 in1007.5 mb 0.00 in0.0 mm 0.00 in0.0 mm 0.19 in4.8 mm
10:20 PM 85.1°F29.5°C 75.4°F24.1°C 73% 1.8 mph SE2.9 kmh SE 7.0 mph11.3 kmh 29.75 in1007.5 mb 0.00 in0.0 mm 0.00 in0.0 mm 0.19 in4.8 mm
10:25 PM 85.1°F29.5°C 75.4°F24.1°C 73% 1.9 mph SE3.1 kmh SE 7.0 mph11.3 kmh 29.75 in1007.5 mb 0.00 in0.0 mm 0.00 in0.0 mm 0.19 in4.8 mm
10:30 PM 85.0°F29.4°C 75.3°F24.1°C 73% 2.5 mph SE4.0 kmh SE 8.0 mph12.9 kmh 29.75 in1007.5 mb 0.00 in0.0 mm 0.00 in0.0 mm 0.19 in4.8 mm
10:35 PM 85.2°F29.6°C 75.5°F24.2°C 73% 3.2 mph SE5.1 kmh SE 13.0 mph20.9 kmh 29.75 in1007.5 mb 0.00 in0.0 mm 0.00 in0.0 mm 0.19 in4.8 mm
10:40 PM 85.0°F29.4°C 75.3°F24.1°C 73% 1.7 mph SE2.7 kmh SE 13.0 mph20.9 kmh 29.75 in1007.5 mb 0.00 in0.0 mm 0.00 in0.0 mm 0.19 in4.8 mm
10:45 PM 84.9°F29.4°C 75.3°F24.1°C 73% 2.6 mph SE4.2 kmh SE 9.0 mph14.5 kmh 29.76 in1007.8 mb 0.00 in0.0 mm 0.00 in0.0 mm 0.19 in4.8 mm
10:50 PM 84.9°F29.4°C 75.3°F24.1°C 73% 2.5 mph SSE4.0 kmh SSE 9.0 mph14.5 kmh 29.76 in1007.8 mb 0.00 in0.0 mm 0.00 in0.0 mm 0.19 in4.8 mm
10:55 PM 84.7°F29.3°C 75.1°F23.9°C 73% 1.6 mph SE2.6 kmh SE 9.0 mph14.5 kmh 29.76 in1007.8 mb 0.00 in0.0 mm 0.00 in0.0 mm 0.19 in4.8 mm
11:00 PM 84.7°F29.3°C 75.1°F23.9°C 73% 2.2 mph SE3.5 kmh SE 9.0 mph14.5 kmh 29.76 in1007.8 mb 0.00 in0.0 mm 0.00 in0.0 mm 0.19 in4.8 mm
11:05 PM 84.6°F29.2°C 75.0°F23.9°C 73% 2.0 mph SE3.2 kmh SE 9.0 mph14.5 kmh 29.76 in1007.8 mb 0.00 in0.0 mm 0.00 in0.0 mm 0.19 in4.8 mm
11:10 PM 84.5°F29.2°C 74.9°F23.8°C 73% 2.9 mph SE4.7 kmh SE 9.0 mph14.5 kmh 29.76 in1007.8 mb 0.00 in0.0 mm 0.00 in0.0 mm 0.19 in4.8 mm
11:15 PM 84.3°F29.1°C 75.1°F23.9°C 74% 1.9 mph SE3.1 kmh SE 9.0 mph14.5 kmh 29.76 in1007.8 mb 0.00 in0.0 mm 0.00 in0.0 mm 0.19 in4.8 mm
11:20 PM 84.2°F29.0°C 75.0°F23.9°C 74% 3.6 mph SE5.8 kmh SE 9.0 mph14.5 kmh 29.76 in1007.8 mb 0.00 in0.0 mm 0.00 in0.0 mm 0.19 in4.8 mm
11:25 PM 84.1°F28.9°C 74.9°F23.8°C 74% 2.6 mph SE4.2 kmh SE 9.0 mph14.5 kmh 29.76 in1007.8 mb 0.00 in0.0 mm 0.00 in0.0 mm 0.19 in4.8 mm
11:30 PM 83.9°F28.8°C 75.1°F23.9°C 75% 3.0 mph SE4.8 kmh SE 11.0 mph17.7 kmh 29.76 in1007.8 mb 0.00 in0.0 mm 0.00 in0.0 mm 0.19 in4.8 mm
11:35 PM 83.7°F28.7°C 74.9°F23.8°C 75% 2.3 mph SE3.7 kmh SE 12.0 mph19.3 kmh 29.76 in1007.8 mb 0.00 in0.0 mm 0.00 in0.0 mm 0.19 in4.8 mm
11:40 PM 83.7°F28.7°C 74.9°F23.8°C 75% 2.2 mph SE3.5 kmh SE 12.0 mph19.3 kmh 29.76 in1007.8 mb 0.00 in0.0 mm 0.00 in0.0 mm 0.19 in4.8 mm
11:45 PM 83.5°F28.6°C 75.1°F23.9°C 76% 2.2 mph SE3.5 kmh SE 8.0 mph12.9 kmh 29.76 in1007.8 mb 0.00 in0.0 mm 0.00 in0.0 mm 0.19 in4.8 mm
11:50 PM 83.4°F28.6°C 75.0°F23.9°C 76% 2.3 mph SSE3.7 kmh SSE 8.0 mph12.9 kmh 29.76 in1007.8 mb 0.00 in0.0 mm 0.00 in0.0 mm 0.19 in4.8 mm
11:55 PM 83.4°F28.6°C 75.0°F23.9°C 76% 2.3 mph SSE3.7 kmh SSE 9.0 mph14.5 kmh 29.76 in1007.8 mb 0.00 in0.0 mm 0.00 in0.0 mm 0.19 in4.8 mm